Terminal Aerodrome Forecast
Issued by NWS

Home | Current Version | Previous Version | Text Only | Print | Product List | Glossary On
Versions: 1 2 3 4 5 6 7 8 9 10 11 12
830
FTUS45 KABQ 300531
TAFAEG
TAF
KAEG 300531Z 3006/3106 23007KT P6SM FEW150
     FM300800 13008KT P6SM FEW120
     FM301200 04006KT P6SM SKC
     FM301800 17010KT P6SM FEW150
     FM302100 20013G22KT P6SM SCT150
     FM310200 23008KT P6SM BKN120=

USA.gov is the U.S. government's official web portal to all federal, state and local government web resources and services.